De Gonia, Indiana
Current Conditions -  °F | °C
As of 7:54 PM on Saturday 25 Oct 2014 (Local Time) from KEVV Reporting Station
Clear Clear  
Wind Chill: 61°   Ceiling: Unl
Heat Index: 61°   Visibility: 10mi
Dew Point: 54°   Wind: 3mph
Humidity: 78%   Direction: 260°W
Pressure: 30"   Gusts: NA
Location:  38.0544°N, 87.2562°W
Report Text: KEVV 260054Z 26003KT 10SM CLR 16/12 A3000 RMK AO2 SLP157 T01610122
Loading
Personal Weather Stations






























Interactive Weather Map
Tropical Storm Tracking
New forecast layout! Learn more

10-Day Weather Forecast

Advertisements
Track Severe Weather on mobile